McKittrick, California
Current Conditions -  °F | °C
As of 7:54 PM on Tuesday 25 Nov 2014 (Local Time) from KBFL Reporting Station
Clear Clear  
Wind Chill: 53°   Ceiling: Unl
Heat Index: 53°   Visibility: 7mi
Dew Point: 39°   Wind: 5mph
Humidity: 59%   Direction: 20°NNE
Pressure: 30.38"   Gusts: NA
Location:  35.31°N, 119.63°W
Report Text: KBFL 260354Z 02004KT 7SM CLR 12/04 A3038 RMK AO2 SLP287 T01170039 $
Loading
Personal Weather Stations






























Interactive Weather Map New forecast layout! Learn more

10-Day Weather Forecast

Advertisements
Track Severe Weather on mobile